sensor_id;sensor_type;location;lat;lon;timestamp;P1;durP1;ratioP1;P2;durP2;ratioP2
21183;SDS011;18176;49.502;11.754;2023-06-10T00:02:17;7.85;;;6.10;;
21183;SDS011;18176;49.502;11.754;2023-06-10T00:06:18;6.97;;;6.00;;
21183;SDS011;18176;49.502;11.754;2023-06-10T00:10:24;7.00;;;5.68;;
21183;SDS011;18176;49.502;11.754;2023-06-10T00:14:25;7.60;;;6.30;;
21183;SDS011;18176;49.502;11.754;2023-06-10T00:18:26;6.75;;;5.85;;
21183;SDS011;18176;49.502;11.754;2023-06-10T00:22:27;6.70;;;5.80;;
21183;SDS011;18176;49.502;11.754;2023-06-10T00:26:31;7.03;;;6.23;;
21183;SDS011;18176;49.502;11.754;2023-06-10T00:30:32;6.93;;;6.22;;
21183;SDS011;18176;49.502;11.754;2023-06-10T00:34:33;9.63;;;6.80;;
21183;SDS011;18176;49.502;11.754;2023-06-10T00:38:33;8.97;;;6.63;;
21183;SDS011;18176;49.502;11.754;2023-06-10T00:42:36;7.55;;;6.07;;
21183;SDS011;18176;49.502;11.754;2023-06-10T00:46:37;8.68;;;6.30;;
21183;SDS011;18176;49.502;11.754;2023-06-10T00:50:38;8.65;;;6.50;;
21183;SDS011;18176;49.502;11.754;2023-06-10T00:54:38;8.18;;;6.22;;
21183;SDS011;18176;49.502;11.754;2023-06-10T00:58:42;9.40;;;6.87;;
21183;SDS011;18176;49.502;11.754;2023-06-10T01:02:43;10.13;;;6.97;;
21183;SDS011;18176;49.502;11.754;2023-06-10T01:06:45;9.07;;;6.77;;
21183;SDS011;18176;49.502;11.754;2023-06-10T01:11:01;9.00;;;7.15;;
21183;SDS011;18176;49.502;11.754;2023-06-10T01:15:16;9.17;;;6.80;;
21183;SDS011;18176;49.502;11.754;2023-06-10T01:19:19;7.87;;;6.47;;
21183;SDS011;18176;49.502;11.754;2023-06-10T01:23:23;7.77;;;6.20;;
21183;SDS011;18176;49.502;11.754;2023-06-10T01:27:25;8.23;;;6.43;;
21183;SDS011;18176;49.502;11.754;2023-06-10T01:31:31;8.03;;;6.80;;
21183;SDS011;18176;49.502;11.754;2023-06-10T01:35:42;8.80;;;6.33;;
21183;SDS011;18176;49.502;11.754;2023-06-10T01:39:48;9.10;;;7.00;;
21183;SDS011;18176;49.502;11.754;2023-06-10T01:43:49;8.03;;;7.03;;
21183;SDS011;18176;49.502;11.754;2023-06-10T01:47:50;7.93;;;6.83;;
21183;SDS011;18176;49.502;11.754;2023-06-10T01:51:51;12.37;;;6.70;;
21183;SDS011;18176;49.502;11.754;2023-06-10T01:55:54;8.33;;;6.50;;
21183;SDS011;18176;49.502;11.754;2023-06-10T01:59:54;7.23;;;6.53;;
21183;SDS011;18176;49.502;11.754;2023-06-10T02:03:55;8.90;;;6.93;;
21183;SDS011;18176;49.502;11.754;2023-06-10T02:07:56;8.00;;;6.80;;
21183;SDS011;18176;49.502;11.754;2023-06-10T02:12:00;9.07;;;6.60;;
21183;SDS011;18176;49.502;11.754;2023-06-10T02:16:02;8.23;;;6.80;;
21183;SDS011;18176;49.502;11.754;2023-06-10T02:20:04;8.57;;;7.50;;
21183;SDS011;18176;49.502;11.754;2023-06-10T02:24:07;9.93;;;7.60;;
21183;SDS011;18176;49.502;11.754;2023-06-10T02:28:11;7.63;;;6.83;;
21183;SDS011;18176;49.502;11.754;2023-06-10T02:32:11;9.40;;;7.37;;
21183;SDS011;18176;49.502;11.754;2023-06-10T02:36:12;10.20;;;7.47;;
21183;SDS011;18176;49.502;11.754;2023-06-10T02:40:13;9.67;;;7.37;;
21183;SDS011;18176;49.502;11.754;2023-06-10T02:44:16;9.47;;;7.70;;
21183;SDS011;18176;49.502;11.754;2023-06-10T02:48:18;8.70;;;7.80;;
21183;SDS011;18176;49.502;11.754;2023-06-10T02:52:20;10.80;;;8.17;;
21183;SDS011;18176;49.502;11.754;2023-06-10T02:56:21;9.03;;;8.13;;
21183;SDS011;18176;49.502;11.754;2023-06-10T03:00:28;8.57;;;7.67;;
21183;SDS011;18176;49.502;11.754;2023-06-10T03:04:29;12.47;;;7.93;;
21183;SDS011;18176;49.502;11.754;2023-06-10T03:08:36;9.63;;;7.27;;
21183;SDS011;18176;49.502;11.754;2023-06-10T03:12:41;8.73;;;7.83;;
21183;SDS011;18176;49.502;11.754;2023-06-10T03:16:44;9.80;;;7.97;;
21183;SDS011;18176;49.502;11.754;2023-06-10T03:20:45;8.23;;;7.43;;
21183;SDS011;18176;49.502;11.754;2023-06-10T03:24:46;9.33;;;7.83;;
21183;SDS011;18176;49.502;11.754;2023-06-10T03:28:48;9.07;;;8.17;;
21183;SDS011;18176;49.502;11.754;2023-06-10T03:32:53;9.63;;;8.30;;
21183;SDS011;18176;49.502;11.754;2023-06-10T03:36:56;8.53;;;7.60;;
21183;SDS011;18176;49.502;11.754;2023-06-10T03:40:57;11.07;;;8.50;;
21183;SDS011;18176;49.502;11.754;2023-06-10T03:44:58;9.37;;;7.97;;
21183;SDS011;18176;49.502;11.754;2023-06-10T03:49:03;10.30;;;8.23;;
21183;SDS011;18176;49.502;11.754;2023-06-10T03:53:04;9.13;;;8.13;;
21183;SDS011;18176;49.502;11.754;2023-06-10T03:57:06;10.73;;;8.67;;
21183;SDS011;18176;49.502;11.754;2023-06-10T04:01:07;9.50;;;8.50;;
21183;SDS011;18176;49.502;11.754;2023-06-10T04:05:12;11.43;;;8.30;;
21183;SDS011;18176;49.502;11.754;2023-06-10T04:09:13;9.80;;;8.40;;
21183;SDS011;18176;49.502;11.754;2023-06-10T04:13:15;9.10;;;7.77;;
21183;SDS011;18176;49.502;11.754;2023-06-10T04:17:23;9.80;;;8.33;;
21183;SDS011;18176;49.502;11.754;2023-06-10T04:21:26;8.73;;;7.50;;
21183;SDS011;18176;49.502;11.754;2023-06-10T04:25:26;10.53;;;8.63;;
21183;SDS011;18176;49.502;11.754;2023-06-10T04:29:27;10.17;;;8.40;;
21183;SDS011;18176;49.502;11.754;2023-06-10T04:33:28;10.50;;;9.33;;
21183;SDS011;18176;49.502;11.754;2023-06-10T04:37:34;9.50;;;8.37;;
21183;SDS011;18176;49.502;11.754;2023-06-10T04:41:35;10.63;;;8.50;;
21183;SDS011;18176;49.502;11.754;2023-06-10T04:45:37;9.20;;;8.30;;
21183;SDS011;18176;49.502;11.754;2023-06-10T04:49:42;10.17;;;7.73;;
21183;SDS011;18176;49.502;11.754;2023-06-10T04:53:45;10.57;;;8.73;;
21183;SDS011;18176;49.502;11.754;2023-06-10T04:57:45;10.70;;;8.57;;
21183;SDS011;18176;49.502;11.754;2023-06-10T05:01:48;10.03;;;8.43;;
21183;SDS011;18176;49.502;11.754;2023-06-10T05:05:48;10.47;;;8.60;;
21183;SDS011;18176;49.502;11.754;2023-06-10T05:09:51;9.27;;;8.30;;
21183;SDS011;18176;49.502;11.754;2023-06-10T05:13:52;12.20;;;8.53;;
21183;SDS011;18176;49.502;11.754;2023-06-10T05:17:52;8.90;;;7.43;;
21183;SDS011;18176;49.502;11.754;2023-06-10T05:21:53;9.80;;;8.43;;
21183;SDS011;18176;49.502;11.754;2023-06-10T05:25:56;9.30;;;8.38;;
21183;SDS011;18176;49.502;11.754;2023-06-10T05:29:57;11.85;;;9.07;;
21183;SDS011;18176;49.502;11.754;2023-06-10T05:33:57;12.52;;;8.77;;
21183;SDS011;18176;49.502;11.754;2023-06-10T05:37:58;9.73;;;8.73;;
21183;SDS011;18176;49.502;11.754;2023-06-10T05:42:02;9.55;;;8.57;;
21183;SDS011;18176;49.502;11.754;2023-06-10T05:46:04;10.20;;;8.35;;
21183;SDS011;18176;49.502;11.754;2023-06-10T05:50:05;8.68;;;7.80;;
21183;SDS011;18176;49.502;11.754;2023-06-10T05:54:07;10.52;;;8.48;;
21183;SDS011;18176;49.502;11.754;2023-06-10T05:58:10;9.23;;;7.65;;
21183;SDS011;18176;49.502;11.754;2023-06-10T06:02:12;10.80;;;7.63;;
21183;SDS011;18176;49.502;11.754;2023-06-10T06:06:12;8.40;;;7.53;;
21183;SDS011;18176;49.502;11.754;2023-06-10T06:10:13;9.23;;;7.38;;
21183;SDS011;18176;49.502;11.754;2023-06-10T06:14:16;8.93;;;7.68;;
21183;SDS011;18176;49.502;11.754;2023-06-10T06:18:16;11.20;;;7.53;;
21183;SDS011;18176;49.502;11.754;2023-06-10T06:22:17;9.63;;;7.20;;
21183;SDS011;18176;49.502;11.754;2023-06-10T06:26:18;8.00;;;7.20;;
21183;SDS011;18176;49.502;11.754;2023-06-10T06:30:22;8.50;;;7.38;;
21183;SDS011;18176;49.502;11.754;2023-06-10T06:34:23;7.90;;;6.85;;
21183;SDS011;18176;49.502;11.754;2023-06-10T06:38:23;11.25;;;8.02;;
21183;SDS011;18176;49.502;11.754;2023-06-10T06:42:24;8.70;;;7.20;;
21183;SDS011;18176;49.502;11.754;2023-06-10T06:46:35;9.25;;;7.25;;
21183;SDS011;18176;49.502;11.754;2023-06-10T06:50:35;9.05;;;6.85;;
21183;SDS011;18176;49.502;11.754;2023-06-10T06:54:38;10.65;;;7.57;;
21183;SDS011;18176;49.502;11.754;2023-06-10T06:58:39;12.15;;;7.78;;
21183;SDS011;18176;49.502;11.754;2023-06-10T07:02:43;8.18;;;6.82;;
21183;SDS011;18176;49.502;11.754;2023-06-10T07:06:44;7.68;;;6.20;;
21183;SDS011;18176;49.502;11.754;2023-06-10T07:10:44;9.95;;;7.30;;
21183;SDS011;18176;49.502;11.754;2023-06-10T07:14:45;13.63;;;7.15;;
21183;SDS011;18176;49.502;11.754;2023-06-10T07:18:48;8.73;;;6.65;;
21183;SDS011;18176;49.502;11.754;2023-06-10T07:27:49;7.95;;;6.97;;
21183;SDS011;18176;49.502;11.754;2023-06-10T07:31:49;8.23;;;6.90;;
21183;SDS011;18176;49.502;11.754;2023-06-10T07:35:51;7.10;;;6.40;;
21183;SDS011;18176;49.502;11.754;2023-06-10T07:39:57;8.20;;;6.25;;
21183;SDS011;18176;49.502;11.754;2023-06-10T07:44:02;7.40;;;6.50;;
21183;SDS011;18176;49.502;11.754;2023-06-10T07:48:03;7.60;;;6.88;;
21183;SDS011;18176;49.502;11.754;2023-06-10T07:52:06;6.60;;;6.00;;
21183;SDS011;18176;49.502;11.754;2023-06-10T07:56:07;8.05;;;6.00;;
21183;SDS011;18176;49.502;11.754;2023-06-10T08:00:11;7.78;;;5.80;;
21183;SDS011;18176;49.502;11.754;2023-06-10T08:04:14;6.35;;;5.75;;
21183;SDS011;18176;49.502;11.754;2023-06-10T08:08:14;6.50;;;5.70;;
21183;SDS011;18176;49.502;11.754;2023-06-10T08:12:15;6.60;;;5.88;;
21183;SDS011;18176;49.502;11.754;2023-06-10T08:16:19;6.35;;;5.70;;
21183;SDS011;18176;49.502;11.754;2023-06-10T08:20:20;7.13;;;6.45;;
21183;SDS011;18176;49.502;11.754;2023-06-10T08:24:21;7.10;;;6.45;;
21183;SDS011;18176;49.502;11.754;2023-06-10T08:28:23;6.80;;;6.20;;
21183;SDS011;18176;49.502;11.754;2023-06-10T08:32:27;8.18;;;6.65;;
21183;SDS011;18176;49.502;11.754;2023-06-10T08:36:28;7.05;;;6.40;;
21183;SDS011;18176;49.502;11.754;2023-06-10T08:40:28;7.20;;;6.60;;
21183;SDS011;18176;49.502;11.754;2023-06-10T08:44:31;6.82;;;6.22;;
21183;SDS011;18176;49.502;11.754;2023-06-10T08:48:39;6.68;;;6.10;;
21183;SDS011;18176;49.502;11.754;2023-06-10T08:52:44;7.13;;;6.30;;
21183;SDS011;18176;49.502;11.754;2023-06-10T08:56:48;6.88;;;5.88;;
21183;SDS011;18176;49.502;11.754;2023-06-10T09:00:53;7.13;;;6.45;;
21183;SDS011;18176;49.502;11.754;2023-06-10T09:04:58;6.63;;;6.03;;
21183;SDS011;18176;49.502;11.754;2023-06-10T09:09:00;7.18;;;6.57;;
21183;SDS011;18176;49.502;11.754;2023-06-10T09:13:01;7.03;;;6.43;;
21183;SDS011;18176;49.502;11.754;2023-06-10T09:17:02;7.20;;;6.43;;
21183;SDS011;18176;49.502;11.754;2023-06-10T09:21:08;6.90;;;6.30;;
21183;SDS011;18176;49.502;11.754;2023-06-10T09:25:09;6.95;;;6.35;;
21183;SDS011;18176;49.502;11.754;2023-06-10T09:29:14;7.00;;;6.28;;
21183;SDS011;18176;49.502;11.754;2023-06-10T09:33:15;6.38;;;5.78;;
21183;SDS011;18176;49.502;11.754;2023-06-10T09:37:23;5.65;;;5.15;;
21183;SDS011;18176;49.502;11.754;2023-06-10T09:41:31;6.18;;;5.45;;
21183;SDS011;18176;49.502;11.754;2023-06-10T09:45:33;6.82;;;5.10;;
21183;SDS011;18176;49.502;11.754;2023-06-10T09:49:37;5.13;;;4.68;;
21183;SDS011;18176;49.502;11.754;2023-06-10T09:53:42;5.00;;;4.53;;
21183;SDS011;18176;49.502;11.754;2023-06-10T09:57:48;4.82;;;4.43;;
21183;SDS011;18176;49.502;11.754;2023-06-10T10:01:54;5.05;;;4.60;;
21183;SDS011;18176;49.502;11.754;2023-06-10T10:11:13;5.47;;;5.07;;
21183;SDS011;18176;49.502;11.754;2023-06-10T10:15:18;5.70;;;4.88;;
21183;SDS011;18176;49.502;11.754;2023-06-10T10:19:22;5.35;;;4.90;;
21183;SDS011;18176;49.502;11.754;2023-06-10T10:23:29;5.28;;;4.70;;
21183;SDS011;18176;49.502;11.754;2023-06-10T10:27:48;5.07;;;4.68;;
21183;SDS011;18176;49.502;11.754;2023-06-10T10:31:56;6.35;;;5.13;;
21183;SDS011;18176;49.502;11.754;2023-06-10T10:36:00;5.00;;;4.60;;
21183;SDS011;18176;49.502;11.754;2023-06-10T10:40:01;5.03;;;4.63;;
21183;SDS011;18176;49.502;11.754;2023-06-10T10:44:05;5.57;;;5.07;;
21183;SDS011;18176;49.502;11.754;2023-06-10T10:48:08;4.80;;;4.40;;
21183;SDS011;18176;49.502;11.754;2023-06-10T10:52:11;4.90;;;4.47;;
21183;SDS011;18176;49.502;11.754;2023-06-10T10:56:13;5.05;;;4.65;;
21183;SDS011;18176;49.502;11.754;2023-06-10T11:00:18;5.47;;;4.50;;
21183;SDS011;18176;49.502;11.754;2023-06-10T11:04:27;4.97;;;4.50;;
21183;SDS011;18176;49.502;11.754;2023-06-10T11:12:49;4.53;;;4.22;;
21183;SDS011;18176;49.502;11.754;2023-06-10T11:16:54;6.18;;;4.05;;
21183;SDS011;18176;49.502;11.754;2023-06-10T11:20:59;4.18;;;3.78;;
21183;SDS011;18176;49.502;11.754;2023-06-10T11:25:01;3.83;;;3.50;;
21183;SDS011;18176;49.502;11.754;2023-06-10T11:29:05;3.70;;;3.50;;
21183;SDS011;18176;49.502;11.754;2023-06-10T11:33:10;3.90;;;3.60;;
21183;SDS011;18176;49.502;11.754;2023-06-10T11:37:16;4.20;;;3.90;;
21183;SDS011;18176;49.502;11.754;2023-06-10T11:41:16;4.10;;;3.75;;
21183;SDS011;18176;49.502;11.754;2023-06-10T11:45:17;4.47;;;4.07;;
21183;SDS011;18176;49.502;11.754;2023-06-10T11:49:20;4.00;;;3.70;;
21183;SDS011;18176;49.502;11.754;2023-06-10T11:53:22;4.50;;;4.10;;
21183;SDS011;18176;49.502;11.754;2023-06-10T11:57:22;4.10;;;3.75;;
21183;SDS011;18176;49.502;11.754;2023-06-10T12:01:23;4.13;;;3.78;;
21183;SDS011;18176;49.502;11.754;2023-06-10T12:05:28;3.72;;;3.42;;
21183;SDS011;18176;49.502;11.754;2023-06-10T12:09:29;3.30;;;3.00;;
21183;SDS011;18176;49.502;11.754;2023-06-10T12:13:30;3.50;;;3.30;;
21183;SDS011;18176;49.502;11.754;2023-06-10T12:17:36;3.35;;;3.00;;
21183;SDS011;18176;49.502;11.754;2023-06-10T12:21:40;3.20;;;3.00;;
21183;SDS011;18176;49.502;11.754;2023-06-10T12:25:49;3.00;;;2.70;;
21183;SDS011;18176;49.502;11.754;2023-06-10T12:29:51;3.78;;;3.47;;
21183;SDS011;18176;49.502;11.754;2023-06-10T12:34:04;4.10;;;3.80;;
21183;SDS011;18176;49.502;11.754;2023-06-10T12:38:11;3.75;;;3.45;;
21183;SDS011;18176;49.502;11.754;2023-06-10T12:42:12;3.90;;;3.60;;
21183;SDS011;18176;49.502;11.754;2023-06-10T12:46:12;4.10;;;3.70;;
21183;SDS011;18176;49.502;11.754;2023-06-10T12:50:13;3.58;;;3.28;;
21183;SDS011;18176;49.502;11.754;2023-06-10T12:54:16;3.30;;;3.05;;
21183;SDS011;18176;49.502;11.754;2023-06-10T12:58:17;3.42;;;3.20;;
21183;SDS011;18176;49.502;11.754;2023-06-10T13:02:20;2.92;;;2.70;;
21183;SDS011;18176;49.502;11.754;2023-06-10T13:06:21;3.10;;;2.90;;
21183;SDS011;18176;49.502;11.754;2023-06-10T13:10:24;3.10;;;2.90;;
21183;SDS011;18176;49.502;11.754;2023-06-10T13:14:24;3.80;;;2.72;;
21183;SDS011;18176;49.502;11.754;2023-06-10T13:18:25;2.90;;;2.70;;
21183;SDS011;18176;49.502;11.754;2023-06-10T13:22:26;3.10;;;2.90;;
21183;SDS011;18176;49.502;11.754;2023-06-10T13:26:29;3.95;;;2.78;;
21183;SDS011;18176;49.502;11.754;2023-06-10T13:30:30;3.20;;;3.00;;
21183;SDS011;18176;49.502;11.754;2023-06-10T13:34:30;2.95;;;2.70;;
21183;SDS011;18176;49.502;11.754;2023-06-10T13:38:31;3.45;;;3.20;;
21183;SDS011;18176;49.502;11.754;2023-06-10T13:42:34;3.38;;;3.08;;
21183;SDS011;18176;49.502;11.754;2023-06-10T13:46:35;5.18;;;3.70;;
21183;SDS011;18176;49.502;11.754;2023-06-10T13:50:35;4.38;;;3.20;;
21183;SDS011;18176;49.502;11.754;2023-06-10T13:54:36;5.15;;;4.57;;
21183;SDS011;18176;49.502;11.754;2023-06-10T13:58:39;5.03;;;4.53;;
21183;SDS011;18176;49.502;11.754;2023-06-10T14:02:39;8.43;;;4.78;;
21183;SDS011;18176;49.502;11.754;2023-06-10T14:06:40;6.32;;;5.13;;
21183;SDS011;18176;49.502;11.754;2023-06-10T14:10:41;7.53;;;5.75;;
21183;SDS011;18176;49.502;11.754;2023-06-10T14:14:44;7.57;;;6.32;;
21183;SDS011;18176;49.502;11.754;2023-06-10T14:18:44;8.00;;;6.32;;
21183;SDS011;18176;49.502;11.754;2023-06-10T14:22:44;7.13;;;6.43;;
21183;SDS011;18176;49.502;11.754;2023-06-10T14:26:45;7.15;;;6.55;;
21183;SDS011;18176;49.502;11.754;2023-06-10T14:30:48;8.90;;;6.97;;
21183;SDS011;18176;49.502;11.754;2023-06-10T14:34:49;9.07;;;8.07;;
21183;SDS011;18176;49.502;11.754;2023-06-10T14:38:49;7.60;;;6.90;;
21183;SDS011;18176;49.502;11.754;2023-06-10T14:42:50;11.20;;;7.82;;
21183;SDS011;18176;49.502;11.754;2023-06-10T14:46:53;9.20;;;7.55;;
21183;SDS011;18176;49.502;11.754;2023-06-10T14:50:53;8.13;;;5.97;;
21183;SDS011;18176;49.502;11.754;2023-06-10T14:54:54;6.78;;;6.18;;
21183;SDS011;18176;49.502;11.754;2023-06-10T14:58:54;6.43;;;5.82;;
21183;SDS011;18176;49.502;11.754;2023-06-10T15:02:57;6.82;;;6.22;;
21183;SDS011;18176;49.502;11.754;2023-06-10T15:06:57;7.05;;;5.85;;
21183;SDS011;18176;49.502;11.754;2023-06-10T15:10:58;6.32;;;5.70;;
21183;SDS011;18176;49.502;11.754;2023-06-10T15:14:59;7.82;;;6.25;;
21183;SDS011;18176;49.502;11.754;2023-06-10T15:19:02;7.75;;;5.95;;
21183;SDS011;18176;49.502;11.754;2023-06-10T15:23:05;7.85;;;5.85;;
21183;SDS011;18176;49.502;11.754;2023-06-10T15:27:06;8.30;;;5.85;;
21183;SDS011;18176;49.502;11.754;2023-06-10T15:31:06;6.63;;;5.50;;
21183;SDS011;18176;49.502;11.754;2023-06-10T15:35:10;6.97;;;5.72;;
21183;SDS011;18176;49.502;11.754;2023-06-10T15:39:10;8.95;;;5.97;;
21183;SDS011;18176;49.502;11.754;2023-06-10T15:43:11;10.07;;;6.28;;
21183;SDS011;18176;49.502;11.754;2023-06-10T15:47:11;7.22;;;5.68;;
21183;SDS011;18176;49.502;11.754;2023-06-10T15:51:14;8.38;;;5.90;;
21183;SDS011;18176;49.502;11.754;2023-06-10T15:55:15;7.03;;;5.82;;
21183;SDS011;18176;49.502;11.754;2023-06-10T15:59:15;6.18;;;5.55;;
21183;SDS011;18176;49.502;11.754;2023-06-10T16:03:15;7.20;;;5.90;;
21183;SDS011;18176;49.502;11.754;2023-06-10T16:07:18;8.45;;;6.03;;
21183;SDS011;18176;49.502;11.754;2023-06-10T16:11:19;9.18;;;7.78;;
21183;SDS011;18176;49.502;11.754;2023-06-10T16:15:19;16.25;;;10.18;;
21183;SDS011;18176;49.502;11.754;2023-06-10T16:19:19;6.38;;;5.20;;
21183;SDS011;18176;49.502;11.754;2023-06-10T16:23:22;13.10;;;11.80;;
21183;SDS011;18176;49.502;11.754;2023-06-10T16:27:23;9.30;;;5.75;;
21183;SDS011;18176;49.502;11.754;2023-06-10T16:31:23;7.75;;;6.30;;
21183;SDS011;18176;49.502;11.754;2023-06-10T16:35:23;9.95;;;6.60;;
21183;SDS011;18176;49.502;11.754;2023-06-10T16:39:26;10.82;;;6.85;;
21183;SDS011;18176;49.502;11.754;2023-06-10T16:43:27;9.45;;;6.53;;
21183;SDS011;18176;49.502;11.754;2023-06-10T16:47:27;10.25;;;6.78;;
21183;SDS011;18176;49.502;11.754;2023-06-10T16:51:28;6.85;;;6.20;;
21183;SDS011;18176;49.502;11.754;2023-06-10T16:55:31;9.65;;;6.25;;
21183;SDS011;18176;49.502;11.754;2023-06-10T16:59:34;9.85;;;6.35;;
21183;SDS011;18176;49.502;11.754;2023-06-10T17:03:35;8.30;;;6.47;;
21183;SDS011;18176;49.502;11.754;2023-06-10T17:07:39;9.75;;;7.05;;
21183;SDS011;18176;49.502;11.754;2023-06-10T17:11:41;7.78;;;7.07;;
21183;SDS011;18176;49.502;11.754;2023-06-10T17:15:42;9.00;;;7.90;;
21183;SDS011;18176;49.502;11.754;2023-06-10T17:19:42;8.48;;;7.57;;
21183;SDS011;18176;49.502;11.754;2023-06-10T17:23:46;7.97;;;6.30;;
21183;SDS011;18176;49.502;11.754;2023-06-10T17:27:49;9.90;;;5.90;;
21183;SDS011;18176;49.502;11.754;2023-06-10T17:31:49;6.38;;;5.78;;
21183;SDS011;18176;49.502;11.754;2023-06-10T17:35:50;7.28;;;5.30;;
21183;SDS011;18176;49.502;11.754;2023-06-10T17:39:51;7.68;;;5.22;;
21183;SDS011;18176;49.502;11.754;2023-06-10T17:43:54;6.13;;;5.47;;
21183;SDS011;18176;49.502;11.754;2023-06-10T17:47:54;7.15;;;6.45;;
21183;SDS011;18176;49.502;11.754;2023-06-10T17:51:55;7.25;;;5.47;;
21183;SDS011;18176;49.502;11.754;2023-06-10T17:55:55;10.00;;;5.57;;
21183;SDS011;18176;49.502;11.754;2023-06-10T18:00:00;8.57;;;5.88;;
21183;SDS011;18176;49.502;11.754;2023-06-10T18:04:03;6.13;;;5.53;;
21183;SDS011;18176;49.502;11.754;2023-06-10T18:08:04;7.13;;;5.85;;
21183;SDS011;18176;49.502;11.754;2023-06-10T18:12:06;8.60;;;5.90;;
21183;SDS011;18176;49.502;11.754;2023-06-10T18:16:10;7.53;;;5.78;;
21183;SDS011;18176;49.502;11.754;2023-06-10T18:20:11;6.20;;;5.60;;
21183;SDS011;18176;49.502;11.754;2023-06-10T18:24:11;6.93;;;6.00;;
21183;SDS011;18176;49.502;11.754;2023-06-10T18:28:12;7.57;;;5.68;;
21183;SDS011;18176;49.502;11.754;2023-06-10T18:32:15;6.38;;;5.78;;
21183;SDS011;18176;49.502;11.754;2023-06-10T18:36:15;6.93;;;5.28;;
21183;SDS011;18176;49.502;11.754;2023-06-10T18:40:16;7.15;;;5.00;;
21183;SDS011;18176;49.502;11.754;2023-06-10T18:44:16;6.78;;;5.47;;
21183;SDS011;18176;49.502;11.754;2023-06-10T18:48:21;5.90;;;4.45;;
21183;SDS011;18176;49.502;11.754;2023-06-10T18:52:22;4.90;;;4.35;;
21183;SDS011;18176;49.502;11.754;2023-06-10T18:56:22;6.72;;;4.10;;
21183;SDS011;18176;49.502;11.754;2023-06-10T19:00:23;8.20;;;4.20;;
21183;SDS011;18176;49.502;11.754;2023-06-10T19:04:26;4.65;;;3.95;;
21183;SDS011;18176;49.502;11.754;2023-06-10T19:08:27;4.45;;;4.05;;
21183;SDS011;18176;49.502;11.754;2023-06-10T19:12:28;5.68;;;4.40;;
21183;SDS011;18176;49.502;11.754;2023-06-10T19:16:29;5.75;;;4.03;;
21183;SDS011;18176;49.502;11.754;2023-06-10T19:20:32;5.20;;;3.97;;
21183;SDS011;18176;49.502;11.754;2023-06-10T19:24:36;4.28;;;3.40;;
21183;SDS011;18176;49.502;11.754;2023-06-10T19:28:36;4.03;;;3.30;;
21183;SDS011;18176;49.502;11.754;2023-06-10T19:32:37;4.00;;;3.60;;
21183;SDS011;18176;49.502;11.754;2023-06-10T19:36:40;4.88;;;3.33;;
21183;SDS011;18176;49.502;11.754;2023-06-10T19:40:40;5.40;;;3.55;;
21183;SDS011;18176;49.502;11.754;2023-06-10T19:44:41;4.80;;;3.90;;
21183;SDS011;18176;49.502;11.754;2023-06-10T19:48:41;5.50;;;4.10;;
21183;SDS011;18176;49.502;11.754;2023-06-10T19:52:44;6.00;;;3.97;;
21183;SDS011;18176;49.502;11.754;2023-06-10T19:56:45;4.65;;;4.22;;
21183;SDS011;18176;49.502;11.754;2023-06-10T20:00:45;7.45;;;4.47;;
21183;SDS011;18176;49.502;11.754;2023-06-10T20:04:45;4.55;;;4.07;;
21183;SDS011;18176;49.502;11.754;2023-06-10T20:08:48;4.82;;;4.43;;
21183;SDS011;18176;49.502;11.754;2023-06-10T20:12:48;5.93;;;4.22;;
21183;SDS011;18176;49.502;11.754;2023-06-10T20:16:49;5.15;;;4.57;;
21183;SDS011;18176;49.502;11.754;2023-06-10T20:20:49;4.63;;;4.22;;
21183;SDS011;18176;49.502;11.754;2023-06-10T20:24:52;5.53;;;4.70;;
21183;SDS011;18176;49.502;11.754;2023-06-10T20:28:52;5.07;;;4.13;;
21183;SDS011;18176;49.502;11.754;2023-06-10T20:32:53;5.85;;;4.40;;
21183;SDS011;18176;49.502;11.754;2023-06-10T20:36:53;7.05;;;4.53;;
21183;SDS011;18176;49.502;11.754;2023-06-10T20:40:56;4.90;;;4.40;;
21183;SDS011;18176;49.502;11.754;2023-06-10T20:44:57;5.90;;;4.80;;
21183;SDS011;18176;49.502;11.754;2023-06-10T20:48:58;5.28;;;4.70;;
21183;SDS011;18176;49.502;11.754;2023-06-10T20:52:58;5.93;;;4.88;;
21183;SDS011;18176;49.502;11.754;2023-06-10T20:57:01;6.57;;;5.20;;
21183;SDS011;18176;49.502;11.754;2023-06-10T21:01:02;8.05;;;5.28;;
21183;SDS011;18176;49.502;11.754;2023-06-10T21:05:04;6.15;;;5.00;;
21183;SDS011;18176;49.502;11.754;2023-06-10T21:09:06;6.03;;;5.43;;
21183;SDS011;18176;49.502;11.754;2023-06-10T21:13:09;6.70;;;5.60;;
21183;SDS011;18176;49.502;11.754;2023-06-10T21:17:10;8.57;;;5.50;;
21183;SDS011;18176;49.502;11.754;2023-06-10T21:21:11;6.55;;;5.63;;
21183;SDS011;18176;49.502;11.754;2023-06-10T21:25:12;6.18;;;5.57;;
21183;SDS011;18176;49.502;11.754;2023-06-10T21:29:15;6.30;;;5.57;;
21183;SDS011;18176;49.502;11.754;2023-06-10T21:33:15;7.57;;;6.10;;
21183;SDS011;18176;49.502;11.754;2023-06-10T21:37:17;7.45;;;5.93;;
21183;SDS011;18176;49.502;11.754;2023-06-10T21:41:18;6.75;;;5.82;;
21183;SDS011;18176;49.502;11.754;2023-06-10T21:45:21;7.47;;;6.20;;
21183;SDS011;18176;49.502;11.754;2023-06-10T21:49:21;7.50;;;5.75;;
21183;SDS011;18176;49.502;11.754;2023-06-10T21:53:22;6.43;;;5.68;;
21183;SDS011;18176;49.502;11.754;2023-06-10T21:57:23;7.50;;;6.25;;
21183;SDS011;18176;49.502;11.754;2023-06-10T22:01:26;7.72;;;6.93;;
21183;SDS011;18176;49.502;11.754;2023-06-10T22:05:28;7.68;;;6.70;;
21183;SDS011;18176;49.502;11.754;2023-06-10T22:09:28;7.55;;;6.60;;
21183;SDS011;18176;49.502;11.754;2023-06-10T22:13:29;8.90;;;6.22;;
21183;SDS011;18176;49.502;11.754;2023-06-10T22:17:32;8.05;;;6.15;;
21183;SDS011;18176;49.502;11.754;2023-06-10T22:21:33;7.22;;;6.53;;
21183;SDS011;18176;49.502;11.754;2023-06-10T22:25:34;7.75;;;6.68;;
21183;SDS011;18176;49.502;11.754;2023-06-10T22:29:34;7.05;;;6.22;;
21183;SDS011;18176;49.502;11.754;2023-06-10T22:33:38;14.38;;;7.10;;
21183;SDS011;18176;49.502;11.754;2023-06-10T22:37:39;7.45;;;6.65;;
21183;SDS011;18176;49.502;11.754;2023-06-10T22:41:39;6.85;;;6.13;;
21183;SDS011;18176;49.502;11.754;2023-06-10T22:45:40;6.40;;;5.68;;
21183;SDS011;18176;49.502;11.754;2023-06-10T22:49:44;7.47;;;6.30;;
21183;SDS011;18176;49.502;11.754;2023-06-10T22:53:44;6.75;;;5.40;;
21183;SDS011;18176;49.502;11.754;2023-06-10T22:57:45;6.88;;;5.32;;
21183;SDS011;18176;49.502;11.754;2023-06-10T23:01:46;8.48;;;6.00;;
21183;SDS011;18176;49.502;11.754;2023-06-10T23:05:49;5.78;;;5.28;;
21183;SDS011;18176;49.502;11.754;2023-06-10T23:09:49;6.60;;;5.90;;
21183;SDS011;18176;49.502;11.754;2023-06-10T23:13:50;15.65;;;6.00;;
21183;SDS011;18176;49.502;11.754;2023-06-10T23:17:50;8.02;;;5.57;;
21183;SDS011;18176;49.502;11.754;2023-06-10T23:21:55;7.00;;;5.80;;
21183;SDS011;18176;49.502;11.754;2023-06-10T23:25:56;6.53;;;5.63;;
21183;SDS011;18176;49.502;11.754;2023-06-10T23:29:56;7.13;;;5.60;;
21183;SDS011;18176;49.502;11.754;2023-06-10T23:33:57;6.40;;;5.70;;
21183;SDS011;18176;49.502;11.754;2023-06-10T23:38:00;6.35;;;5.50;;
21183;SDS011;18176;49.502;11.754;2023-06-10T23:42:00;6.65;;;5.93;;
21183;SDS011;18176;49.502;11.754;2023-06-10T23:46:01;7.03;;;5.82;;
21183;SDS011;18176;49.502;11.754;2023-06-10T23:50:04;6.15;;;5.55;;
21183;SDS011;18176;49.502;11.754;2023-06-10T23:54:09;6.30;;;5.65;;
21183;SDS011;18176;49.502;11.754;2023-06-10T23:58:10;6.70;;;6.03;;
